sensor_id;sensor_type;location;lat;lon;timestamp;P1;durP1;ratioP1;P2;durP2;ratioP2
57752;SDS011;43583;53.132;6.574;2023-06-22T00:01:27;14.07;;;10.23;;
57752;SDS011;43583;53.132;6.574;2023-06-22T00:03:52;14.38;;;10.77;;
57752;SDS011;43583;53.132;6.574;2023-06-22T00:06:18;19.15;;;10.55;;
57752;SDS011;43583;53.132;6.574;2023-06-22T00:08:44;15.98;;;9.93;;
57752;SDS011;43583;53.132;6.574;2023-06-22T00:11:09;18.15;;;10.40;;
57752;SDS011;43583;53.132;6.574;2023-06-22T00:13:35;15.25;;;11.38;;
57752;SDS011;43583;53.132;6.574;2023-06-22T00:16:01;15.10;;;10.20;;
57752;SDS011;43583;53.132;6.574;2023-06-22T00:18:26;15.55;;;10.13;;
57752;SDS011;43583;53.132;6.574;2023-06-22T00:20:53;11.77;;;8.60;;
57752;SDS011;43583;53.132;6.574;2023-06-22T00:23:22;14.52;;;10.27;;
57752;SDS011;43583;53.132;6.574;2023-06-22T00:25:49;17.15;;;9.90;;
57752;SDS011;43583;53.132;6.574;2023-06-22T00:28:15;12.25;;;9.85;;
57752;SDS011;43583;53.132;6.574;2023-06-22T00:30:40;16.13;;;10.40;;
57752;SDS011;43583;53.132;6.574;2023-06-22T00:33:06;13.23;;;8.35;;
57752;SDS011;43583;53.132;6.574;2023-06-22T00:35:32;12.88;;;8.65;;
57752;SDS011;43583;53.132;6.574;2023-06-22T00:37:59;12.40;;;10.00;;
57752;SDS011;43583;53.132;6.574;2023-06-22T00:40:32;15.10;;;8.95;;
57752;SDS011;43583;53.132;6.574;2023-06-22T00:42:59;16.45;;;10.38;;
57752;SDS011;43583;53.132;6.574;2023-06-22T00:45:24;15.07;;;10.57;;
57752;SDS011;43583;53.132;6.574;2023-06-22T00:47:52;17.00;;;10.95;;
57752;SDS011;43583;53.132;6.574;2023-06-22T00:50:20;11.77;;;9.43;;
57752;SDS011;43583;53.132;6.574;2023-06-22T00:52:51;12.30;;;7.97;;
57752;SDS011;43583;53.132;6.574;2023-06-22T00:55:18;13.82;;;8.95;;
57752;SDS011;43583;53.132;6.574;2023-06-22T00:57:47;9.95;;;8.15;;
57752;SDS011;43583;53.132;6.574;2023-06-22T01:00:14;13.38;;;8.80;;
57752;SDS011;43583;53.132;6.574;2023-06-22T01:02:45;11.70;;;8.45;;
57752;SDS011;43583;53.132;6.574;2023-06-22T01:05:12;16.10;;;9.18;;
57752;SDS011;43583;53.132;6.574;2023-06-22T01:07:45;11.80;;;8.45;;
57752;SDS011;43583;53.132;6.574;2023-06-22T01:13:12;11.05;;;7.95;;
57752;SDS011;43583;53.132;6.574;2023-06-22T01:15:44;8.70;;;6.00;;
57752;SDS011;43583;53.132;6.574;2023-06-22T01:18:14;11.48;;;7.97;;
57752;SDS011;43583;53.132;6.574;2023-06-22T01:20:41;11.77;;;8.73;;
57752;SDS011;43583;53.132;6.574;2023-06-22T01:23:26;13.48;;;9.35;;
57752;SDS011;43583;53.132;6.574;2023-06-22T01:31:18;12.32;;;8.75;;
57752;SDS011;43583;53.132;6.574;2023-06-22T01:33:47;14.63;;;8.10;;
57752;SDS011;43583;53.132;6.574;2023-06-22T01:36:17;13.52;;;8.57;;
57752;SDS011;43583;53.132;6.574;2023-06-22T01:38:44;12.38;;;9.18;;
57752;SDS011;43583;53.132;6.574;2023-06-22T01:41:10;14.00;;;8.20;;
57752;SDS011;43583;53.132;6.574;2023-06-22T01:43:37;15.35;;;8.00;;
57752;SDS011;43583;53.132;6.574;2023-06-22T01:46:03;14.88;;;9.65;;
57752;SDS011;43583;53.132;6.574;2023-06-22T01:48:29;11.63;;;7.80;;
57752;SDS011;43583;53.132;6.574;2023-06-22T01:50:55;10.45;;;8.27;;
57752;SDS011;43583;53.132;6.574;2023-06-22T01:53:22;12.75;;;8.48;;
57752;SDS011;43583;53.132;6.574;2023-06-22T01:55:48;15.23;;;9.90;;
57752;SDS011;43583;53.132;6.574;2023-06-22T01:58:14;14.50;;;9.77;;
57752;SDS011;43583;53.132;6.574;2023-06-22T02:00:40;15.68;;;9.75;;
57752;SDS011;43583;53.132;6.574;2023-06-22T02:03:14;14.00;;;9.65;;
57752;SDS011;43583;53.132;6.574;2023-06-22T02:05:48;12.43;;;8.45;;
57752;SDS011;43583;53.132;6.574;2023-06-22T02:08:21;11.80;;;7.97;;
57752;SDS011;43583;53.132;6.574;2023-06-22T02:10:50;12.20;;;9.10;;
57752;SDS011;43583;53.132;6.574;2023-06-22T02:13:17;12.57;;;8.27;;
57752;SDS011;43583;53.132;6.574;2023-06-22T02:15:44;12.10;;;7.47;;
57752;SDS011;43583;53.132;6.574;2023-06-22T02:18:10;12.27;;;8.50;;
57752;SDS011;43583;53.132;6.574;2023-06-22T02:20:37;14.43;;;9.23;;
57752;SDS011;43583;53.132;6.574;2023-06-22T02:23:03;15.77;;;9.95;;
57752;SDS011;43583;53.132;6.574;2023-06-22T02:25:29;16.77;;;11.15;;
57752;SDS011;43583;53.132;6.574;2023-06-22T02:27:55;14.98;;;10.27;;
57752;SDS011;43583;53.132;6.574;2023-06-22T02:30:20;19.58;;;11.32;;
57752;SDS011;43583;53.132;6.574;2023-06-22T02:32:46;17.38;;;11.75;;
57752;SDS011;43583;53.132;6.574;2023-06-22T02:35:11;19.40;;;11.85;;
57752;SDS011;43583;53.132;6.574;2023-06-22T02:37:37;20.23;;;13.48;;
57752;SDS011;43583;53.132;6.574;2023-06-22T02:40:06;19.33;;;12.38;;
57752;SDS011;43583;53.132;6.574;2023-06-22T02:42:34;17.55;;;12.02;;
57752;SDS011;43583;53.132;6.574;2023-06-22T02:45:00;21.65;;;13.35;;
57752;SDS011;43583;53.132;6.574;2023-06-22T02:47:26;19.10;;;11.60;;
57752;SDS011;43583;53.132;6.574;2023-06-22T02:49:51;22.33;;;13.68;;
57752;SDS011;43583;53.132;6.574;2023-06-22T02:52:17;18.63;;;12.85;;
57752;SDS011;43583;53.132;6.574;2023-06-22T02:54:42;19.00;;;12.25;;
57752;SDS011;43583;53.132;6.574;2023-06-22T02:57:10;12.45;;;9.23;;
57752;SDS011;43583;53.132;6.574;2023-06-22T02:59:38;17.60;;;12.07;;
57752;SDS011;43583;53.132;6.574;2023-06-22T03:02:07;19.77;;;13.23;;
57752;SDS011;43583;53.132;6.574;2023-06-22T03:04:34;18.73;;;12.60;;
57752;SDS011;43583;53.132;6.574;2023-06-22T03:06:59;14.27;;;9.57;;
57752;SDS011;43583;53.132;6.574;2023-06-22T03:09:26;8.73;;;6.32;;
57752;SDS011;43583;53.132;6.574;2023-06-22T03:11:55;8.63;;;6.15;;
57752;SDS011;43583;53.132;6.574;2023-06-22T03:14:21;10.35;;;5.65;;
57752;SDS011;43583;53.132;6.574;2023-06-22T03:16:46;7.35;;;5.22;;
57752;SDS011;43583;53.132;6.574;2023-06-22T03:19:12;5.85;;;5.20;;
57752;SDS011;43583;53.132;6.574;2023-06-22T03:21:39;4.68;;;4.28;;
57752;SDS011;43583;53.132;6.574;2023-06-22T03:24:05;4.78;;;4.28;;
57752;SDS011;43583;53.132;6.574;2023-06-22T03:26:31;7.80;;;5.65;;
57752;SDS011;43583;53.132;6.574;2023-06-22T03:28:56;9.10;;;5.30;;
57752;SDS011;43583;53.132;6.574;2023-06-22T03:31:22;8.38;;;5.80;;
57752;SDS011;43583;53.132;6.574;2023-06-22T03:33:48;8.18;;;5.30;;
57752;SDS011;43583;53.132;6.574;2023-06-22T03:36:15;10.27;;;5.60;;
57752;SDS011;43583;53.132;6.574;2023-06-22T03:38:45;11.00;;;7.28;;
57752;SDS011;43583;53.132;6.574;2023-06-22T03:41:11;12.70;;;9.67;;
57752;SDS011;43583;53.132;6.574;2023-06-22T03:43:36;11.57;;;8.77;;
57752;SDS011;43583;53.132;6.574;2023-06-22T03:46:02;12.98;;;8.90;;
57752;SDS011;43583;53.132;6.574;2023-06-22T03:48:27;13.05;;;8.05;;
57752;SDS011;43583;53.132;6.574;2023-06-22T03:50:53;11.45;;;8.25;;
57752;SDS011;43583;53.132;6.574;2023-06-22T03:53:19;12.05;;;8.38;;
57752;SDS011;43583;53.132;6.574;2023-06-22T03:55:48;13.73;;;11.13;;
57752;SDS011;43583;53.132;6.574;2023-06-22T03:58:15;14.80;;;10.38;;
57752;SDS011;43583;53.132;6.574;2023-06-22T04:00:44;18.73;;;12.05;;
57752;SDS011;43583;53.132;6.574;2023-06-22T04:03:10;18.10;;;11.27;;
57752;SDS011;43583;53.132;6.574;2023-06-22T04:05:37;14.45;;;11.80;;
57752;SDS011;43583;53.132;6.574;2023-06-22T04:08:04;16.27;;;10.80;;
57752;SDS011;43583;53.132;6.574;2023-06-22T04:10:30;16.95;;;11.63;;
57752;SDS011;43583;53.132;6.574;2023-06-22T04:12:55;17.00;;;12.25;;
57752;SDS011;43583;53.132;6.574;2023-06-22T04:15:21;15.45;;;11.60;;
57752;SDS011;43583;53.132;6.574;2023-06-22T04:17:47;19.17;;;11.23;;
57752;SDS011;43583;53.132;6.574;2023-06-22T04:20:12;15.60;;;11.32;;
57752;SDS011;43583;53.132;6.574;2023-06-22T04:22:38;18.77;;;13.13;;
57752;SDS011;43583;53.132;6.574;2023-06-22T04:25:03;18.55;;;13.05;;
57752;SDS011;43583;53.132;6.574;2023-06-22T04:27:30;15.40;;;11.40;;
57752;SDS011;43583;53.132;6.574;2023-06-22T04:29:56;18.25;;;13.00;;
57752;SDS011;43583;53.132;6.574;2023-06-22T04:32:25;14.82;;;11.73;;
57752;SDS011;43583;53.132;6.574;2023-06-22T04:34:50;16.75;;;13.38;;
57752;SDS011;43583;53.132;6.574;2023-06-22T04:37:17;22.95;;;17.98;;
57752;SDS011;43583;53.132;6.574;2023-06-22T04:39:43;25.85;;;18.98;;
57752;SDS011;43583;53.132;6.574;2023-06-22T04:42:08;27.70;;;20.58;;
57752;SDS011;43583;53.132;6.574;2023-06-22T04:44:34;26.13;;;20.05;;
57752;SDS011;43583;53.132;6.574;2023-06-22T04:47:01;27.38;;;20.33;;
57752;SDS011;43583;53.132;6.574;2023-06-22T04:49:28;25.67;;;19.13;;
57752;SDS011;43583;53.132;6.574;2023-06-22T04:51:58;24.27;;;18.50;;
57752;SDS011;43583;53.132;6.574;2023-06-22T04:54:24;25.30;;;18.48;;
57752;SDS011;43583;53.132;6.574;2023-06-22T04:56:58;22.00;;;17.20;;
57752;SDS011;43583;53.132;6.574;2023-06-22T04:59:36;21.55;;;16.77;;
57752;SDS011;43583;53.132;6.574;2023-06-22T05:02:04;21.52;;;16.85;;
57752;SDS011;43583;53.132;6.574;2023-06-22T05:04:31;22.58;;;16.00;;
57752;SDS011;43583;53.132;6.574;2023-06-22T05:06:57;18.80;;;16.05;;
57752;SDS011;43583;53.132;6.574;2023-06-22T05:09:23;21.90;;;16.25;;
57752;SDS011;43583;53.132;6.574;2023-06-22T05:11:52;21.48;;;15.23;;
57752;SDS011;43583;53.132;6.574;2023-06-22T05:14:17;20.73;;;15.57;;
57752;SDS011;43583;53.132;6.574;2023-06-22T05:16:44;18.65;;;15.05;;
57752;SDS011;43583;53.132;6.574;2023-06-22T05:19:10;20.80;;;15.07;;
57752;SDS011;43583;53.132;6.574;2023-06-22T05:21:36;22.25;;;15.88;;
57752;SDS011;43583;53.132;6.574;2023-06-22T05:24:02;16.60;;;13.68;;
57752;SDS011;43583;53.132;6.574;2023-06-22T05:26:32;19.88;;;15.73;;
57752;SDS011;43583;53.132;6.574;2023-06-22T05:28:59;20.52;;;15.75;;
57752;SDS011;43583;53.132;6.574;2023-06-22T05:31:26;18.25;;;14.40;;
57752;SDS011;43583;53.132;6.574;2023-06-22T05:33:52;19.40;;;14.60;;
57752;SDS011;43583;53.132;6.574;2023-06-22T05:36:19;17.77;;;13.65;;
57752;SDS011;43583;53.132;6.574;2023-06-22T05:38:46;17.45;;;13.88;;
57752;SDS011;43583;53.132;6.574;2023-06-22T05:41:12;15.80;;;14.02;;
57752;SDS011;43583;53.132;6.574;2023-06-22T05:43:38;18.58;;;14.18;;
57752;SDS011;43583;53.132;6.574;2023-06-22T05:46:04;16.38;;;13.90;;
57752;SDS011;43583;53.132;6.574;2023-06-22T05:48:30;15.43;;;12.77;;
57752;SDS011;43583;53.132;6.574;2023-06-22T05:50:56;17.13;;;13.20;;
57752;SDS011;43583;53.132;6.574;2023-06-22T05:53:21;18.73;;;13.50;;
57752;SDS011;43583;53.132;6.574;2023-06-22T05:55:47;18.27;;;14.23;;
57752;SDS011;43583;53.132;6.574;2023-06-22T05:58:13;18.73;;;13.88;;
57752;SDS011;43583;53.132;6.574;2023-06-22T06:00:39;18.15;;;14.15;;
57752;SDS011;43583;53.132;6.574;2023-06-22T06:03:06;13.68;;;11.57;;
57752;SDS011;43583;53.132;6.574;2023-06-22T06:05:33;13.45;;;11.10;;
57752;SDS011;43583;53.132;6.574;2023-06-22T06:08:03;14.68;;;11.20;;
57752;SDS011;43583;53.132;6.574;2023-06-22T06:10:30;16.25;;;10.93;;
57752;SDS011;43583;53.132;6.574;2023-06-22T06:12:57;11.68;;;10.23;;
57752;SDS011;43583;53.132;6.574;2023-06-22T06:15:22;11.57;;;9.98;;
57752;SDS011;43583;53.132;6.574;2023-06-22T06:17:51;10.10;;;9.10;;
57752;SDS011;43583;53.132;6.574;2023-06-22T06:20:18;9.13;;;8.20;;
57752;SDS011;43583;53.132;6.574;2023-06-22T06:22:45;9.10;;;8.20;;
57752;SDS011;43583;53.132;6.574;2023-06-22T06:25:11;8.50;;;6.82;;
57752;SDS011;43583;53.132;6.574;2023-06-22T06:27:41;8.55;;;7.22;;
57752;SDS011;43583;53.132;6.574;2023-06-22T06:30:15;7.72;;;6.45;;
57752;SDS011;43583;53.132;6.574;2023-06-22T06:32:42;7.03;;;6.10;;
57752;SDS011;43583;53.132;6.574;2023-06-22T06:35:10;6.57;;;5.85;;
57752;SDS011;43583;53.132;6.574;2023-06-22T06:37:38;6.40;;;5.25;;
57752;SDS011;43583;53.132;6.574;2023-06-22T06:40:06;6.47;;;5.50;;
57752;SDS011;43583;53.132;6.574;2023-06-22T06:42:38;5.20;;;4.65;;
57752;SDS011;43583;53.132;6.574;2023-06-22T06:45:09;6.68;;;5.97;;
57752;SDS011;43583;53.132;6.574;2023-06-22T06:47:41;6.43;;;5.05;;
57752;SDS011;43583;53.132;6.574;2023-06-22T06:50:07;6.00;;;5.10;;
57752;SDS011;43583;53.132;6.574;2023-06-22T06:52:33;6.45;;;5.43;;
57752;SDS011;43583;53.132;6.574;2023-06-22T06:54:59;7.47;;;5.18;;
57752;SDS011;43583;53.132;6.574;2023-06-22T06:57:24;7.93;;;5.63;;
57752;SDS011;43583;53.132;6.574;2023-06-22T06:59:54;6.07;;;4.88;;
57752;SDS011;43583;53.132;6.574;2023-06-22T07:02:21;6.60;;;5.32;;
57752;SDS011;43583;53.132;6.574;2023-06-22T07:04:47;5.07;;;4.55;;
57752;SDS011;43583;53.132;6.574;2023-06-22T07:07:13;4.78;;;4.07;;
57752;SDS011;43583;53.132;6.574;2023-06-22T07:09:39;5.38;;;4.55;;
57752;SDS011;43583;53.132;6.574;2023-06-22T07:12:05;4.20;;;3.70;;
57752;SDS011;43583;53.132;6.574;2023-06-22T07:14:31;5.25;;;4.68;;
57752;SDS011;43583;53.132;6.574;2023-06-22T07:16:57;5.07;;;4.53;;
57752;SDS011;43583;53.132;6.574;2023-06-22T07:19:26;5.40;;;3.78;;
57752;SDS011;43583;53.132;6.574;2023-06-22T07:21:55;4.15;;;3.55;;
57752;SDS011;43583;53.132;6.574;2023-06-22T07:24:24;4.97;;;3.30;;
57752;SDS011;43583;53.132;6.574;2023-06-22T07:26:56;3.97;;;2.92;;
57752;SDS011;43583;53.132;6.574;2023-06-22T07:29:24;3.63;;;2.88;;
57752;SDS011;43583;53.132;6.574;2023-06-22T07:31:50;3.20;;;2.63;;
57752;SDS011;43583;53.132;6.574;2023-06-22T07:34:21;3.53;;;3.20;;
57752;SDS011;43583;53.132;6.574;2023-06-22T07:36:47;6.22;;;4.05;;
57752;SDS011;43583;53.132;6.574;2023-06-22T07:39:13;4.63;;;3.83;;
57752;SDS011;43583;53.132;6.574;2023-06-22T07:41:39;4.65;;;4.07;;
57752;SDS011;43583;53.132;6.574;2023-06-22T07:44:14;3.97;;;3.47;;
57752;SDS011;43583;53.132;6.574;2023-06-22T07:46:40;4.25;;;2.22;;
57752;SDS011;43583;53.132;6.574;2023-06-22T07:49:05;4.32;;;2.88;;
57752;SDS011;43583;53.132;6.574;2023-06-22T07:51:33;3.20;;;2.80;;
57752;SDS011;43583;53.132;6.574;2023-06-22T07:53:58;5.20;;;3.08;;
57752;SDS011;43583;53.132;6.574;2023-06-22T07:56:24;3.70;;;3.22;;
57752;SDS011;43583;53.132;6.574;2023-06-22T07:58:50;5.00;;;2.45;;
57752;SDS011;43583;53.132;6.574;2023-06-22T08:01:15;6.03;;;4.18;;
57752;SDS011;43583;53.132;6.574;2023-06-22T08:03:42;4.82;;;3.20;;
57752;SDS011;43583;53.132;6.574;2023-06-22T08:06:07;3.55;;;2.80;;
57752;SDS011;43583;53.132;6.574;2023-06-22T08:08:34;4.30;;;3.40;;
57752;SDS011;43583;53.132;6.574;2023-06-22T08:14:42;2.92;;;2.63;;
57752;SDS011;43583;53.132;6.574;2023-06-22T08:17:11;3.72;;;2.92;;
57752;SDS011;43583;53.132;6.574;2023-06-22T08:19:37;3.60;;;2.83;;
57752;SDS011;43583;53.132;6.574;2023-06-22T08:22:03;3.42;;;2.47;;
57752;SDS011;43583;53.132;6.574;2023-06-22T08:24:28;2.40;;;2.15;;
57752;SDS011;43583;53.132;6.574;2023-06-22T08:26:55;2.58;;;1.85;;
57752;SDS011;43583;53.132;6.574;2023-06-22T08:29:21;5.32;;;1.83;;
57752;SDS011;43583;53.132;6.574;2023-06-22T08:31:46;2.80;;;2.35;;
57752;SDS011;43583;53.132;6.574;2023-06-22T08:34:12;3.25;;;2.30;;
57752;SDS011;43583;53.132;6.574;2023-06-22T08:36:37;4.65;;;2.22;;
57752;SDS011;43583;53.132;6.574;2023-06-22T08:39:06;5.05;;;1.88;;
57752;SDS011;43583;53.132;6.574;2023-06-22T08:41:33;2.53;;;2.15;;
57752;SDS011;43583;53.132;6.574;2023-06-22T08:43:59;2.58;;;2.03;;
57752;SDS011;43583;53.132;6.574;2023-06-22T08:46:24;3.63;;;2.58;;
57752;SDS011;43583;53.132;6.574;2023-06-22T08:48:55;3.13;;;2.55;;
57752;SDS011;43583;53.132;6.574;2023-06-22T08:51:22;5.07;;;2.97;;
57752;SDS011;43583;53.132;6.574;2023-06-22T08:53:48;4.82;;;3.05;;
57752;SDS011;43583;53.132;6.574;2023-06-22T08:56:14;3.88;;;3.00;;
57752;SDS011;43583;53.132;6.574;2023-06-22T08:58:39;3.30;;;2.70;;
57752;SDS011;43583;53.132;6.574;2023-06-22T09:01:05;4.30;;;2.60;;
57752;SDS011;43583;53.132;6.574;2023-06-22T09:03:30;3.10;;;2.75;;
57752;SDS011;43583;53.132;6.574;2023-06-22T09:05:57;3.85;;;3.10;;
57752;SDS011;43583;53.132;6.574;2023-06-22T09:08:23;3.00;;;2.65;;
57752;SDS011;43583;53.132;6.574;2023-06-22T09:10:49;4.20;;;2.72;;
57752;SDS011;43583;53.132;6.574;2023-06-22T09:13:14;4.63;;;2.78;;
57752;SDS011;43583;53.132;6.574;2023-06-22T09:15:40;4.15;;;2.78;;
57752;SDS011;43583;53.132;6.574;2023-06-22T09:18:05;5.40;;;3.05;;
57752;SDS011;43583;53.132;6.574;2023-06-22T09:20:31;5.45;;;2.72;;
57752;SDS011;43583;53.132;6.574;2023-06-22T09:22:56;4.97;;;2.83;;
57752;SDS011;43583;53.132;6.574;2023-06-22T09:25:22;3.47;;;2.60;;
57752;SDS011;43583;53.132;6.574;2023-06-22T09:27:48;3.78;;;2.45;;
57752;SDS011;43583;53.132;6.574;2023-06-22T09:30:14;4.22;;;2.85;;
57752;SDS011;43583;53.132;6.574;2023-06-22T09:32:39;3.85;;;2.78;;
57752;SDS011;43583;53.132;6.574;2023-06-22T09:35:05;4.28;;;2.70;;
57752;SDS011;43583;53.132;6.574;2023-06-22T09:37:31;4.13;;;3.03;;
57752;SDS011;43583;53.132;6.574;2023-06-22T09:39:57;3.53;;;2.88;;
57752;SDS011;43583;53.132;6.574;2023-06-22T09:42:23;4.28;;;2.90;;
57752;SDS011;43583;53.132;6.574;2023-06-22T09:44:48;6.22;;;2.30;;
57752;SDS011;43583;53.132;6.574;2023-06-22T09:47:14;3.78;;;3.08;;
57752;SDS011;43583;53.132;6.574;2023-06-22T09:49:39;3.38;;;2.53;;
57752;SDS011;43583;53.132;6.574;2023-06-22T09:52:05;4.70;;;2.80;;
57752;SDS011;43583;53.132;6.574;2023-06-22T09:54:31;3.83;;;2.53;;
57752;SDS011;43583;53.132;6.574;2023-06-22T09:56:56;3.42;;;2.58;;
57752;SDS011;43583;53.132;6.574;2023-06-22T09:59:22;4.32;;;3.63;;
57752;SDS011;43583;53.132;6.574;2023-06-22T10:01:47;3.85;;;3.47;;
57752;SDS011;43583;53.132;6.574;2023-06-22T10:04:13;3.03;;;2.47;;
57752;SDS011;43583;53.132;6.574;2023-06-22T10:06:38;4.72;;;2.72;;
57752;SDS011;43583;53.132;6.574;2023-06-22T10:09:05;3.95;;;3.22;;
57752;SDS011;43583;53.132;6.574;2023-06-22T10:11:32;6.30;;;3.08;;
57752;SDS011;43583;53.132;6.574;2023-06-22T10:13:59;3.47;;;2.50;;
57752;SDS011;43583;53.132;6.574;2023-06-22T10:16:30;5.22;;;3.13;;
57752;SDS011;43583;53.132;6.574;2023-06-22T10:18:56;3.35;;;2.92;;
57752;SDS011;43583;53.132;6.574;2023-06-22T10:21:21;3.88;;;3.45;;
57752;SDS011;43583;53.132;6.574;2023-06-22T10:23:47;6.57;;;3.75;;
57752;SDS011;43583;53.132;6.574;2023-06-22T10:26:12;3.95;;;2.67;;
57752;SDS011;43583;53.132;6.574;2023-06-22T10:28:38;5.82;;;2.95;;
57752;SDS011;43583;53.132;6.574;2023-06-22T10:31:03;3.28;;;2.63;;
57752;SDS011;43583;53.132;6.574;2023-06-22T10:33:29;4.63;;;3.13;;
57752;SDS011;43583;53.132;6.574;2023-06-22T10:35:55;4.38;;;3.20;;
57752;SDS011;43583;53.132;6.574;2023-06-22T10:38:20;4.07;;;2.45;;
57752;SDS011;43583;53.132;6.574;2023-06-22T10:40:46;5.93;;;3.50;;
57752;SDS011;43583;53.132;6.574;2023-06-22T10:43:12;8.20;;;3.60;;
57752;SDS011;43583;53.132;6.574;2023-06-22T10:45:37;4.93;;;3.22;;
57752;SDS011;43583;53.132;6.574;2023-06-22T10:48:03;3.92;;;3.53;;
57752;SDS011;43583;53.132;6.574;2023-06-22T10:50:29;5.50;;;3.80;;
57752;SDS011;43583;53.132;6.574;2023-06-22T10:52:54;6.35;;;3.88;;
57752;SDS011;43583;53.132;6.574;2023-06-22T10:55:20;6.03;;;4.60;;
57752;SDS011;43583;53.132;6.574;2023-06-22T10:57:46;4.20;;;3.28;;
57752;SDS011;43583;53.132;6.574;2023-06-22T11:00:13;6.13;;;3.67;;
57752;SDS011;43583;53.132;6.574;2023-06-22T11:02:39;4.18;;;3.45;;
57752;SDS011;43583;53.132;6.574;2023-06-22T11:05:05;5.47;;;4.22;;
57752;SDS011;43583;53.132;6.574;2023-06-22T11:07:31;5.18;;;3.80;;
57752;SDS011;43583;53.132;6.574;2023-06-22T11:09:57;4.55;;;3.40;;
57752;SDS011;43583;53.132;6.574;2023-06-22T11:12:23;5.43;;;2.72;;
57752;SDS011;43583;53.132;6.574;2023-06-22T11:14:49;4.53;;;2.78;;
57752;SDS011;43583;53.132;6.574;2023-06-22T11:17:17;4.60;;;2.95;;
57752;SDS011;43583;53.132;6.574;2023-06-22T11:19:44;3.05;;;2.03;;
57752;SDS011;43583;53.132;6.574;2023-06-22T11:22:09;4.70;;;3.40;;
57752;SDS011;43583;53.132;6.574;2023-06-22T11:24:35;4.03;;;3.20;;
57752;SDS011;43583;53.132;6.574;2023-06-22T11:27:01;3.80;;;2.72;;
57752;SDS011;43583;53.132;6.574;2023-06-22T11:29:26;3.50;;;2.17;;
57752;SDS011;43583;53.132;6.574;2023-06-22T11:31:52;3.88;;;2.63;;
57752;SDS011;43583;53.132;6.574;2023-06-22T11:34:17;3.55;;;2.53;;
57752;SDS011;43583;53.132;6.574;2023-06-22T11:36:44;3.78;;;2.33;;
57752;SDS011;43583;53.132;6.574;2023-06-22T11:39:10;3.05;;;2.60;;
57752;SDS011;43583;53.132;6.574;2023-06-22T11:41:35;2.55;;;2.35;;
57752;SDS011;43583;53.132;6.574;2023-06-22T11:44:01;2.15;;;1.77;;
57752;SDS011;43583;53.132;6.574;2023-06-22T11:46:29;4.43;;;2.63;;
57752;SDS011;43583;53.132;6.574;2023-06-22T11:48:55;2.85;;;2.22;;
57752;SDS011;43583;53.132;6.574;2023-06-22T11:51:20;5.03;;;2.80;;
57752;SDS011;43583;53.132;6.574;2023-06-22T11:53:46;2.38;;;2.10;;
57752;SDS011;43583;53.132;6.574;2023-06-22T11:56:11;2.33;;;1.77;;
57752;SDS011;43583;53.132;6.574;2023-06-22T11:58:37;4.70;;;2.25;;
57752;SDS011;43583;53.132;6.574;2023-06-22T12:01:02;3.33;;;2.38;;
57752;SDS011;43583;53.132;6.574;2023-06-22T12:03:28;2.95;;;2.20;;
57752;SDS011;43583;53.132;6.574;2023-06-22T12:05:55;2.95;;;1.65;;
57752;SDS011;43583;53.132;6.574;2023-06-22T12:08:20;3.40;;;2.17;;
57752;SDS011;43583;53.132;6.574;2023-06-22T12:10:46;3.55;;;2.47;;
57752;SDS011;43583;53.132;6.574;2023-06-22T12:13:12;3.03;;;2.05;;
57752;SDS011;43583;53.132;6.574;2023-06-22T12:15:38;4.32;;;2.75;;
57752;SDS011;43583;53.132;6.574;2023-06-22T12:18:03;2.85;;;2.08;;
57752;SDS011;43583;53.132;6.574;2023-06-22T12:20:29;3.28;;;2.50;;
57752;SDS011;43583;53.132;6.574;2023-06-22T12:22:54;2.92;;;2.35;;
57752;SDS011;43583;53.132;6.574;2023-06-22T12:25:23;4.07;;;2.45;;
57752;SDS011;43583;53.132;6.574;2023-06-22T12:27:48;3.40;;;2.85;;
57752;SDS011;43583;53.132;6.574;2023-06-22T12:30:15;4.15;;;2.75;;
57752;SDS011;43583;53.132;6.574;2023-06-22T12:32:41;3.38;;;2.35;;
57752;SDS011;43583;53.132;6.574;2023-06-22T12:35:07;2.75;;;2.55;;
57752;SDS011;43583;53.132;6.574;2023-06-22T12:37:37;4.22;;;2.85;;
57752;SDS011;43583;53.132;6.574;2023-06-22T12:40:02;3.10;;;2.25;;
57752;SDS011;43583;53.132;6.574;2023-06-22T12:42:29;3.28;;;2.33;;
57752;SDS011;43583;53.132;6.574;2023-06-22T12:44:54;2.83;;;2.30;;
57752;SDS011;43583;53.132;6.574;2023-06-22T12:47:20;4.30;;;2.58;;
57752;SDS011;43583;53.132;6.574;2023-06-22T12:49:45;2.65;;;1.85;;
57752;SDS011;43583;53.132;6.574;2023-06-22T12:52:11;4.97;;;3.00;;
57752;SDS011;43583;53.132;6.574;2023-06-22T12:54:36;3.40;;;2.30;;
57752;SDS011;43583;53.132;6.574;2023-06-22T12:57:02;5.13;;;3.22;;
57752;SDS011;43583;53.132;6.574;2023-06-22T12:59:27;3.83;;;2.33;;
57752;SDS011;43583;53.132;6.574;2023-06-22T13:01:53;3.25;;;2.17;;
57752;SDS011;43583;53.132;6.574;2023-06-22T13:04:18;3.33;;;2.70;;
57752;SDS011;43583;53.132;6.574;2023-06-22T13:06:44;3.70;;;2.45;;
57752;SDS011;43583;53.132;6.574;2023-06-22T13:09:13;3.53;;;2.50;;
57752;SDS011;43583;53.132;6.574;2023-06-22T13:11:39;4.18;;;2.28;;
57752;SDS011;43583;53.132;6.574;2023-06-22T13:14:04;5.05;;;2.90;;
57752;SDS011;43583;53.132;6.574;2023-06-22T13:16:30;4.60;;;2.97;;
57752;SDS011;43583;53.132;6.574;2023-06-22T13:18:55;3.80;;;3.38;;
57752;SDS011;43583;53.132;6.574;2023-06-22T13:21:21;5.05;;;3.33;;
57752;SDS011;43583;53.132;6.574;2023-06-22T13:23:47;6.70;;;3.35;;
57752;SDS011;43583;53.132;6.574;2023-06-22T13:26:12;4.97;;;3.22;;
57752;SDS011;43583;53.132;6.574;2023-06-22T13:28:38;6.07;;;4.20;;
57752;SDS011;43583;53.132;6.574;2023-06-22T13:31:03;5.55;;;3.25;;
57752;SDS011;43583;53.132;6.574;2023-06-22T13:33:29;3.55;;;2.72;;
57752;SDS011;43583;53.132;6.574;2023-06-22T13:35:55;5.32;;;3.42;;
57752;SDS011;43583;53.132;6.574;2023-06-22T13:38:20;4.13;;;2.63;;
57752;SDS011;43583;53.132;6.574;2023-06-22T13:40:47;4.78;;;2.80;;
57752;SDS011;43583;53.132;6.574;2023-06-22T13:43:13;5.63;;;3.30;;
57752;SDS011;43583;53.132;6.574;2023-06-22T13:45:38;4.88;;;2.85;;
57752;SDS011;43583;53.132;6.574;2023-06-22T13:48:04;3.83;;;2.45;;
57752;SDS011;43583;53.132;6.574;2023-06-22T13:50:30;2.47;;;2.20;;
57752;SDS011;43583;53.132;6.574;2023-06-22T13:52:55;2.83;;;2.17;;
57752;SDS011;43583;53.132;6.574;2023-06-22T13:55:21;4.07;;;2.72;;
57752;SDS011;43583;53.132;6.574;2023-06-22T13:57:48;4.28;;;2.58;;
57752;SDS011;43583;53.132;6.574;2023-06-22T14:00:13;3.35;;;2.08;;
57752;SDS011;43583;53.132;6.574;2023-06-22T14:02:39;4.13;;;2.67;;
57752;SDS011;43583;53.132;6.574;2023-06-22T14:05:06;2.05;;;1.40;;
57752;SDS011;43583;53.132;6.574;2023-06-22T14:07:32;3.40;;;1.52;;
57752;SDS011;43583;53.132;6.574;2023-06-22T14:09:57;3.03;;;2.28;;
57752;SDS011;43583;53.132;6.574;2023-06-22T14:12:23;2.38;;;1.48;;
57752;SDS011;43583;53.132;6.574;2023-06-22T14:14:49;2.63;;;1.48;;
57752;SDS011;43583;53.132;6.574;2023-06-22T14:17:15;3.10;;;1.02;;
57752;SDS011;43583;53.132;6.574;2023-06-22T14:19:40;3.55;;;1.30;;
57752;SDS011;43583;53.132;6.574;2023-06-22T14:22:06;4.03;;;1.23;;
57752;SDS011;43583;53.132;6.574;2023-06-22T14:24:31;3.42;;;1.30;;
57752;SDS011;43583;53.132;6.574;2023-06-22T14:26:57;2.72;;;1.15;;
57752;SDS011;43583;53.132;6.574;2023-06-22T14:29:22;4.60;;;1.75;;
57752;SDS011;43583;53.132;6.574;2023-06-22T14:31:48;3.83;;;1.38;;
57752;SDS011;43583;53.132;6.574;2023-06-22T14:34:14;1.60;;;1.10;;
57752;SDS011;43583;53.132;6.574;2023-06-22T14:36:40;2.30;;;0.73;;
57752;SDS011;43583;53.132;6.574;2023-06-22T14:39:07;2.42;;;0.65;;
57752;SDS011;43583;53.132;6.574;2023-06-22T14:41:33;2.15;;;0.60;;
57752;SDS011;43583;53.132;6.574;2023-06-22T14:43:59;1.95;;;1.08;;
57752;SDS011;43583;53.132;6.574;2023-06-22T14:46:24;1.30;;;0.80;;